createdAt,value
2018-08-31T16:45:25.617Z,71.90
2018-08-31T16:47:54.197Z,70.20
2018-08-31T16:50:23.356Z,71.90
2018-08-31T16:52:51.846Z,69.40
2018-08-31T16:55:20.287Z,70.30
2018-08-31T16:57:48.796Z,70.50
2018-08-31T17:03:22.838Z,77.50
2018-08-31T17:05:50.507Z,71.30
2018-08-31T17:08:18.263Z,70.50
2018-08-31T17:10:45.926Z,71.20
2018-08-31T17:13:13.602Z,71.40
2018-08-31T17:15:41.408Z,70.20
2018-08-31T17:18:09.124Z,70.00
2018-08-31T17:20:36.756Z,70.40
2018-08-31T17:23:04.531Z,70.40
2018-08-31T17:25:32.338Z,70.50
2018-08-31T17:28:05.800Z,71.30
2018-08-31T17:30:33.561Z,71.80
2018-08-31T17:33:06.948Z,72.30
2018-08-31T17:35:40.476Z,72.50
2018-08-31T17:38:08.196Z,73.80
2018-08-31T17:40:35.936Z,74.70
2018-08-31T17:43:03.670Z,75.50
2018-08-31T17:45:31.332Z,76.60
2018-08-31T17:47:59.102Z,77.10
2018-08-31T17:50:26.817Z,78.10
2018-08-31T17:52:54.728Z,78.80
2018-08-31T17:55:22.406Z,79.60
2018-08-31T17:57:50.815Z,80.20
2018-08-31T18:00:18.700Z,80.50
2018-08-31T18:02:46.426Z,80.90
2018-08-31T18:05:14.078Z,81.60
2018-08-31T18:07:41.872Z,81.80
2018-08-31T18:10:09.606Z,82.40
2018-08-31T18:12:37.292Z,82.20
2018-08-31T18:15:05.112Z,82.90
2018-08-31T18:17:32.952Z,82.40
2018-08-31T18:20:00.916Z,82.50
2018-08-31T18:22:28.592Z,82.90
2018-08-31T18:24:56.341Z,82.60
2018-08-31T18:27:24.109Z,82.70
2018-08-31T18:29:51.774Z,83.20
2018-08-31T18:32:19.999Z,83.70
2018-08-31T18:34:47.721Z,83.70
2018-08-31T18:37:15.508Z,84.00
2018-08-31T18:39:43.236Z,84.10
2018-08-31T18:42:11.575Z,84.00
2018-08-31T18:44:39.288Z,84.50
2018-08-31T18:47:07.003Z,84.70
2018-08-31T18:49:34.739Z,85.80
2018-08-31T18:52:02.492Z,85.70
2018-08-31T18:54:30.657Z,85.80
2018-08-31T18:56:58.755Z,86.50
2018-08-31T18:59:26.601Z,86.70
2018-08-31T19:01:54.441Z,87.00
2018-08-31T19:04:22.359Z,87.20
2018-08-31T19:06:50.074Z,87.30
2018-08-31T19:09:20.130Z,87.40
2018-08-31T19:11:47.896Z,87.90
2018-08-31T19:14:15.549Z,88.70
2018-08-31T19:16:43.215Z,88.00
2018-08-31T19:19:10.996Z,88.50
2018-08-31T19:21:38.766Z,88.80
2018-08-31T19:24:07.337Z,89.20
2018-08-31T19:26:35.079Z,89.70
2018-08-31T19:29:03.908Z,90.00
2018-08-31T19:31:32.483Z,90.10
2018-08-31T19:34:00.283Z,90.20
2018-08-31T19:36:28.184Z,90.40
2018-08-31T19:38:56.249Z,90.60
2018-08-31T19:41:23.956Z,90.70
2018-08-31T19:43:51.756Z,90.90
2018-08-31T19:46:19.485Z,91.20
2018-08-31T19:48:47.317Z,91.10
2018-08-31T19:51:18.346Z,91.50
2018-08-31T19:53:46.147Z,91.60
2018-08-31T19:56:13.958Z,91.80
2018-08-31T19:58:41.656Z,92.00
2018-08-31T20:01:09.364Z,92.20
2018-08-31T20:03:37.105Z,92.40
2018-08-31T20:06:04.818Z,92.40
2018-08-31T20:08:32.482Z,92.60
2018-08-31T20:11:00.227Z,92.70
2018-08-31T20:13:28.003Z,92.90
2018-08-31T20:15:55.577Z,93.00
2018-08-31T20:18:23.340Z,93.10
2018-08-31T20:20:50.940Z,93.30
2018-08-31T20:23:18.652Z,93.40
2018-08-31T20:25:46.373Z,93.70
2018-08-31T20:28:14.126Z,93.90
2018-08-31T20:30:41.808Z,94.00
2018-08-31T20:33:09.428Z,94.00
2018-08-31T20:35:37.129Z,94.10
2018-08-31T20:38:04.785Z,94.30
2018-08-31T20:40:32.464Z,94.40
2018-08-31T20:43:00.145Z,94.50
2018-08-31T20:45:27.851Z,94.50
2018-08-31T20:47:55.675Z,95.20
2018-08-31T20:50:23.420Z,95.00
2018-08-31T20:52:51.165Z,95.10
2018-08-31T20:55:18.990Z,95.20
2018-08-31T20:57:46.715Z,95.30
2018-08-31T21:00:14.416Z,95.60
2018-08-31T21:02:42.132Z,95.80
2018-08-31T21:05:09.868Z,96.00
2018-08-31T21:07:37.600Z,96.00
2018-08-31T21:10:05.668Z,96.60
2018-08-31T21:12:33.402Z,96.20
2018-08-31T21:15:01.070Z,96.60
2018-08-31T21:17:28.842Z,96.60
2018-08-31T21:19:56.513Z,96.70
2018-08-31T21:22:24.188Z,97.00
2018-08-31T21:24:51.853Z,97.30
2018-08-31T21:27:19.502Z,97.30
2018-08-31T21:29:47.157Z,97.50
2018-08-31T21:32:14.811Z,97.50
2018-08-31T21:34:42.454Z,97.50
2018-08-31T21:37:10.109Z,97.60
2018-08-31T21:39:37.744Z,97.90
2018-08-31T21:42:05.449Z,97.90
2018-08-31T21:44:33.105Z,98.00
2018-08-31T21:47:00.771Z,98.40
2018-08-31T21:49:28.545Z,98.30
2018-08-31T21:51:56.126Z,98.40
2018-08-31T21:54:23.856Z,98.70
2018-08-31T21:56:51.480Z,98.80
2018-08-31T21:59:19.912Z,98.60
2018-08-31T22:01:54.979Z,98.70
2018-08-31T22:04:23.079Z,98.80
2018-08-31T22:06:50.808Z,98.80
2018-08-31T22:09:18.545Z,99.00
2018-08-31T22:11:46.332Z,99.00
2018-08-31T22:14:13.993Z,99.00
2018-08-31T22:16:41.812Z,99.00
2018-08-31T22:19:09.489Z,99.20
2018-08-31T22:21:37.257Z,99.30
2018-08-31T22:24:04.946Z,99.30
2018-08-31T22:26:32.660Z,99.40
2018-08-31T22:29:00.311Z,99.50
2018-08-31T22:31:28.013Z,99.40
2018-08-31T22:33:55.641Z,99.60
2018-08-31T22:36:23.413Z,99.70
2018-08-31T22:38:51.181Z,99.70
2018-08-31T22:41:18.812Z,99.70
2018-08-31T22:43:49.947Z,99.70
2018-08-31T22:46:18.988Z,99.70
2018-08-31T22:48:47.021Z,99.70
2018-08-31T22:51:14.631Z,99.80
2018-08-31T22:53:42.285Z,99.90
2018-08-31T22:56:09.943Z,99.90
2018-08-31T22:58:37.564Z,99.90
2018-08-31T23:01:05.383Z,99.90
2018-08-31T23:03:33.055Z,99.90
2018-08-31T23:06:00.772Z,99.90
2018-08-31T23:08:28.574Z,99.90
2018-08-31T23:10:56.367Z,99.90
2018-08-31T23:13:24.057Z,99.90
2018-08-31T23:15:51.794Z,99.90
2018-08-31T23:18:19.488Z,99.90
2018-08-31T23:20:47.147Z,99.90
2018-08-31T23:23:20.316Z,99.90
2018-08-31T23:25:47.996Z,99.90
2018-08-31T23:28:16.224Z,99.90
2018-08-31T23:30:44.112Z,99.90
2018-08-31T23:33:11.800Z,99.90
2018-08-31T23:35:39.627Z,99.90
2018-08-31T23:38:07.358Z,99.90
2018-08-31T23:40:35.171Z,99.90
2018-08-31T23:43:02.957Z,99.90
2018-08-31T23:45:30.689Z,99.90
2018-08-31T23:47:58.441Z,99.90
2018-08-31T23:50:26.148Z,99.90
2018-08-31T23:52:53.952Z,99.90
2018-08-31T23:55:21.680Z,99.90
2018-08-31T23:57:49.379Z,99.90
